Warlingham, United Kingdom
Current Conditions -  °F | °C
As of 8:20 PM on Wednesday 17 Dec 2014 (Local Time) from EGKB Reporting Station
Broken Clouds Broken Clouds  
Wind Chill: 52°   Ceiling: 1100
Heat Index: 52°   Visibility: 6mi
Dew Point: 48°   Wind: 14mph
Humidity: 88%   Direction: 250°WSW
Pressure: 29.8"   Gusts: NA
Location:  51.32°N, 0.06°W
Report Text: EGKB 172020Z 25012KT 210V280 9999 BKN011 11/09 Q1009
Loading
Personal Weather Stations






























Interactive Weather Map New forecast layout! Learn more

10-Day Weather Forecast

Advertisements
Track Severe Weather on mobile